Stockton-on-Tees, United Kingdom
Current Conditions -  °F | °C
As of 1:20 PM on Thursday 30 Oct 2014 (Local Time) from EGNV Reporting Station
Haze Haze  
Wind Chill: 15°   Ceiling: 2200
Heat Index: 15°   Visibility: 2.1mi
Dew Point: 13°   Wind: 13mph
Humidity: 88%   Direction: 180°S
Pressure: 29.94"   Gusts: NA
Location:  54.57°N, 1.31°W
Report Text: EGNV 301320Z 18011KT 3500 HZ SCT009 BKN022 15/13 Q1014
Loading
Personal Weather Stations






























Interactive Weather Map
Tropical Storm Tracking
New forecast layout! Learn more

10-Day Weather Forecast

Advertisements
Track Severe Weather on mobile